Kobuk Valley National Park, AK

5:03 AM AKDT op 24 juli 2014 (GMT -0800)
Ambler (PAFM) Hoogte 289 ft | 67.11 °N, 157.86 °W | Change Station

Current weather conditions updated 7 minutes ago

Overcast
Geheel bewolkt
45 °F
Voelt als 45 °F
N
0
Wind Variabel Wind van noord

Er wordt verwacht dat het vandaag veel koeler is dan gisteren.

Vandaag
Hoog -- | Laag -- °F
--% Kans op neerslag
Gisteren
Hoog -- | Laag -- °F
Precip. -- inches
4:24 AM 1:06 AM
Afnemende halvemaan, 5% visible
Druk 29.73 inches
Zicht 10.0 mijlen
Wolken Licht bewolkt 3400 ft
Merendeels bewolkt 4000 ft
Geheel bewolkt 7000 ft
Dauwpunt 43 °F
Vochtigheid 93%
Neerslag 0.00 inches
Dikte sneeuw Niet beschikbaar.
UV 0 van de 12
Pollen Niet beschikbaar.
Luchtkwaliteit Niet beschikbaar.
Flu Activity Niet beschikbaar.
METAR PAFM 241256Z AUTO 00000KT 10SM SCT034 BKN040 OVC070 07/06 A2973 RMK AO1

More Conditions Fewer Conditions

Druk 29.73 inches
Zicht 10.0 mijlen
Wolken Licht bewolkt 3400 ft
Merendeels bewolkt 4000 ft
Geheel bewolkt 7000 ft
Dauwpunt 43 °F
Vochtigheid 93%
Neerslag 0.00 inches
Dikte sneeuw Niet beschikbaar.
UV 0 van de 12
Pollen Niet beschikbaar.
Luchtkwaliteit Niet beschikbaar.
Flu Activity Niet beschikbaar.
METAR PAFM 241256Z AUTO 00000KT 10SM SCT034 BKN040 OVC070 07/06 A2973 RMK AO1

More Conditions Fewer Conditions

10-Day Weather Forecast

Almanac

Astronomie

Jul. 24, 2014 Opkomst Ondergang
Werkelijke tijd 4:24 AM AKDT 1:06 AM AKDT
Burgerlijke schemering Sun does not rise Sun does not rise
Nautische schemering Sun does not rise Sun does not rise
Astronomische schemering Sun does not rise Sun does not rise
Maan 3:12 AM AKDT 10:50 PM AKDT
Golflengte van het zichtbare licht 24h 00m
Daglengte
20h 42m
Tomorrow will be 11m 4s shorter.
Afnemende halvemaan, 5% of the Moon is Illuminated
Vandaag
Afnemende halvemaan
jul 26
Nieuw
aug 3
Eerste kwartier
aug 10
Volle maan
aug 17
Laatste kwartier

Extremen vandaag

State Highs State Lows

Community

WunderPhotos

Upload Photos

1,736,993 foto’s ge-upload!

Nearby

Luchtkwaliteit

Not available.

Dikte sneeuw

Station Depth Geometrische hoogte
Pargon Creek 0 in 300 ft
Rocky Point 2 in 500 ft
Gobblers Knob 0 in 2030 ft
Coldfoot 1 in 1040 ft
Atigun Pass 0 in 4800 ft

Aardbevingen

Stad Distance Mag. Time & Date
No recent earthquake activity has been reported nearby.
Minimum magnitude displayed is 2.5.

Watertemperatuur langs de kust

Plaats Temperatuur
Geen meldingen van stations

Nabije weerstations

Geen persoonlijke weerstations in dit gebied.